sensor_id;sensor_type;location;lat;lon;timestamp;temperature;humidity
43151;DHT22;28755;51.478;5.702;2022-10-16T00:00:35;13.90;99.90
43151;DHT22;28755;51.478;5.702;2022-10-16T00:03:01;13.90;99.90
43151;DHT22;28755;51.478;5.702;2022-10-16T00:05:27;14.00;99.90
43151;DHT22;28755;51.478;5.702;2022-10-16T00:07:53;13.90;99.90
43151;DHT22;28755;51.478;5.702;2022-10-16T00:10:18;14.00;99.90
43151;DHT22;28755;51.478;5.702;2022-10-16T00:12:44;13.90;99.90
43151;DHT22;28755;51.478;5.702;2022-10-16T00:15:09;13.90;99.90
43151;DHT22;28755;51.478;5.702;2022-10-16T00:17:35;13.90;99.90
43151;DHT22;28755;51.478;5.702;2022-10-16T00:20:01;13.80;99.90
43151;DHT22;28755;51.478;5.702;2022-10-16T00:22:26;13.80;99.90
43151;DHT22;28755;51.478;5.702;2022-10-16T00:24:52;13.90;99.90
43151;DHT22;28755;51.478;5.702;2022-10-16T00:27:17;13.90;99.90
43151;DHT22;28755;51.478;5.702;2022-10-16T00:29:43;13.80;99.90
43151;DHT22;28755;51.478;5.702;2022-10-16T00:32:09;13.80;99.90
43151;DHT22;28755;51.478;5.702;2022-10-16T00:34:34;13.80;99.90
43151;DHT22;28755;51.478;5.702;2022-10-16T00:37:00;13.80;99.90
43151;DHT22;28755;51.478;5.702;2022-10-16T00:39:26;13.80;99.90
43151;DHT22;28755;51.478;5.702;2022-10-16T00:41:51;13.70;99.90
43151;DHT22;28755;51.478;5.702;2022-10-16T00:44:47;13.70;99.90
43151;DHT22;28755;51.478;5.702;2022-10-16T00:47:23;13.70;99.90
43151;DHT22;28755;51.478;5.702;2022-10-16T00:49:53;13.70;99.90
43151;DHT22;28755;51.478;5.702;2022-10-16T00:52:20;13.70;99.90
43151;DHT22;28755;51.478;5.702;2022-10-16T00:54:47;13.60;99.90
43151;DHT22;28755;51.478;5.702;2022-10-16T00:57:13;13.60;99.90
43151;DHT22;28755;51.478;5.702;2022-10-16T00:59:40;13.60;99.90
43151;DHT22;28755;51.478;5.702;2022-10-16T01:02:09;13.60;99.90
43151;DHT22;28755;51.478;5.702;2022-10-16T01:04:43;13.60;99.90
43151;DHT22;28755;51.478;5.702;2022-10-16T01:07:35;13.60;99.90
43151;DHT22;28755;51.478;5.702;2022-10-16T01:13:16;13.50;99.90
43151;DHT22;28755;51.478;5.702;2022-10-16T01:15:54;13.50;99.90
43151;DHT22;28755;51.478;5.702;2022-10-16T01:18:38;13.50;99.90
43151;DHT22;28755;51.478;5.702;2022-10-16T01:21:06;13.50;99.90
43151;DHT22;28755;51.478;5.702;2022-10-16T01:24:06;13.50;99.90
43151;DHT22;28755;51.478;5.702;2022-10-16T01:29:57;13.40;99.90
43151;DHT22;28755;51.478;5.702;2022-10-16T01:32:46;13.30;99.90
43151;DHT22;28755;51.478;5.702;2022-10-16T01:35:30;13.40;99.90
43151;DHT22;28755;51.478;5.702;2022-10-16T01:38:17;13.30;99.90
43151;DHT22;28755;51.478;5.702;2022-10-16T01:41:00;13.30;99.90
43151;DHT22;28755;51.478;5.702;2022-10-16T01:43:50;13.30;99.90
43151;DHT22;28755;51.478;5.702;2022-10-16T01:46:17;13.30;99.90
43151;DHT22;28755;51.478;5.702;2022-10-16T01:48:43;13.20;99.90
43151;DHT22;28755;51.478;5.702;2022-10-16T01:51:12;13.20;99.90
43151;DHT22;28755;51.478;5.702;2022-10-16T01:53:39;13.20;99.90
43151;DHT22;28755;51.478;5.702;2022-10-16T01:56:08;13.20;99.90
43151;DHT22;28755;51.478;5.702;2022-10-16T01:58:37;13.20;99.90
43151;DHT22;28755;51.478;5.702;2022-10-16T02:01:07;13.20;99.90
43151;DHT22;28755;51.478;5.702;2022-10-16T02:03:37;13.20;99.90
43151;DHT22;28755;51.478;5.702;2022-10-16T02:06:03;13.10;99.90
43151;DHT22;28755;51.478;5.702;2022-10-16T02:08:30;13.20;99.90
43151;DHT22;28755;51.478;5.702;2022-10-16T02:11:00;13.20;99.90
43151;DHT22;28755;51.478;5.702;2022-10-16T02:13:33;13.20;99.90
43151;DHT22;28755;51.478;5.702;2022-10-16T02:15:59;13.20;99.90
43151;DHT22;28755;51.478;5.702;2022-10-16T02:18:26;13.30;99.90
43151;DHT22;28755;51.478;5.702;2022-10-16T02:23:55;13.30;99.90
43151;DHT22;28755;51.478;5.702;2022-10-16T02:29:04;13.30;99.90
43151;DHT22;28755;51.478;5.702;2022-10-16T02:31:34;13.30;99.90
43151;DHT22;28755;51.478;5.702;2022-10-16T02:34:02;13.30;99.90
43151;DHT22;28755;51.478;5.702;2022-10-16T02:36:31;13.20;99.90
43151;DHT22;28755;51.478;5.702;2022-10-16T02:38:58;13.30;99.90
43151;DHT22;28755;51.478;5.702;2022-10-16T02:41:25;13.20;99.90
43151;DHT22;28755;51.478;5.702;2022-10-16T02:43:51;13.20;99.90
43151;DHT22;28755;51.478;5.702;2022-10-16T02:46:17;13.20;99.90
43151;DHT22;28755;51.478;5.702;2022-10-16T02:48:43;13.30;99.90
43151;DHT22;28755;51.478;5.702;2022-10-16T02:51:09;13.20;99.90
43151;DHT22;28755;51.478;5.702;2022-10-16T02:53:34;13.20;99.90
43151;DHT22;28755;51.478;5.702;2022-10-16T02:56:00;13.10;99.90
43151;DHT22;28755;51.478;5.702;2022-10-16T02:58:25;13.10;99.90
43151;DHT22;28755;51.478;5.702;2022-10-16T03:00:51;13.00;99.90
43151;DHT22;28755;51.478;5.702;2022-10-16T03:03:17;13.00;99.90
43151;DHT22;28755;51.478;5.702;2022-10-16T03:05:43;13.00;99.90
43151;DHT22;28755;51.478;5.702;2022-10-16T03:08:11;13.00;99.90
43151;DHT22;28755;51.478;5.702;2022-10-16T03:10:37;13.00;99.90
43151;DHT22;28755;51.478;5.702;2022-10-16T03:13:02;13.00;99.90
43151;DHT22;28755;51.478;5.702;2022-10-16T03:15:28;13.00;99.90
43151;DHT22;28755;51.478;5.702;2022-10-16T03:17:54;13.00;99.90
43151;DHT22;28755;51.478;5.702;2022-10-16T03:20:20;12.90;99.90
43151;DHT22;28755;51.478;5.702;2022-10-16T03:22:46;12.90;99.90
43151;DHT22;28755;51.478;5.702;2022-10-16T03:25:11;13.00;99.90
43151;DHT22;28755;51.478;5.702;2022-10-16T03:27:37;13.10;99.90
43151;DHT22;28755;51.478;5.702;2022-10-16T03:30:03;13.00;99.90
43151;DHT22;28755;51.478;5.702;2022-10-16T03:32:28;13.00;99.90
43151;DHT22;28755;51.478;5.702;2022-10-16T03:34:54;13.00;99.90
43151;DHT22;28755;51.478;5.702;2022-10-16T03:37:21;13.00;99.90
43151;DHT22;28755;51.478;5.702;2022-10-16T03:39:47;13.10;99.90
43151;DHT22;28755;51.478;5.702;2022-10-16T03:42:12;13.10;99.90
43151;DHT22;28755;51.478;5.702;2022-10-16T03:44:38;13.00;99.90
43151;DHT22;28755;51.478;5.702;2022-10-16T03:47:04;13.10;99.90
43151;DHT22;28755;51.478;5.702;2022-10-16T03:49:29;13.10;99.90
43151;DHT22;28755;51.478;5.702;2022-10-16T03:51:55;13.10;99.90
43151;DHT22;28755;51.478;5.702;2022-10-16T03:54:20;13.10;99.90
43151;DHT22;28755;51.478;5.702;2022-10-16T03:56:47;13.10;99.90
43151;DHT22;28755;51.478;5.702;2022-10-16T03:59:13;13.10;99.90
43151;DHT22;28755;51.478;5.702;2022-10-16T04:01:39;13.20;99.90
43151;DHT22;28755;51.478;5.702;2022-10-16T04:04:04;13.10;99.90
43151;DHT22;28755;51.478;5.702;2022-10-16T04:06:30;13.10;99.90
43151;DHT22;28755;51.478;5.702;2022-10-16T04:08:55;13.10;99.90
43151;DHT22;28755;51.478;5.702;2022-10-16T04:11:21;13.10;99.90
43151;DHT22;28755;51.478;5.702;2022-10-16T04:13:47;13.10;99.90
43151;DHT22;28755;51.478;5.702;2022-10-16T04:16:12;13.10;99.90
43151;DHT22;28755;51.478;5.702;2022-10-16T04:18:38;13.20;99.90
43151;DHT22;28755;51.478;5.702;2022-10-16T04:21:05;13.10;99.90
43151;DHT22;28755;51.478;5.702;2022-10-16T04:23:31;13.10;99.90
43151;DHT22;28755;51.478;5.702;2022-10-16T04:25:57;13.20;99.90
43151;DHT22;28755;51.478;5.702;2022-10-16T04:28:22;13.20;99.90
43151;DHT22;28755;51.478;5.702;2022-10-16T04:30:48;13.20;99.90
43151;DHT22;28755;51.478;5.702;2022-10-16T04:33:13;13.20;99.90
43151;DHT22;28755;51.478;5.702;2022-10-16T04:35:39;13.20;99.90
43151;DHT22;28755;51.478;5.702;2022-10-16T04:38:05;13.30;99.90
43151;DHT22;28755;51.478;5.702;2022-10-16T04:40:30;13.20;99.90
43151;DHT22;28755;51.478;5.702;2022-10-16T04:43:01;13.20;99.90
43151;DHT22;28755;51.478;5.702;2022-10-16T04:45:27;13.30;99.90
43151;DHT22;28755;51.478;5.702;2022-10-16T04:47:52;13.30;99.90
43151;DHT22;28755;51.478;5.702;2022-10-16T04:50:18;13.30;99.90
43151;DHT22;28755;51.478;5.702;2022-10-16T04:52:43;13.40;99.90
43151;DHT22;28755;51.478;5.702;2022-10-16T04:55:09;13.30;99.90
43151;DHT22;28755;51.478;5.702;2022-10-16T04:57:34;13.40;99.90
43151;DHT22;28755;51.478;5.702;2022-10-16T05:00:00;13.30;99.90
43151;DHT22;28755;51.478;5.702;2022-10-16T05:02:26;13.30;99.90
43151;DHT22;28755;51.478;5.702;2022-10-16T05:04:52;13.40;99.90
43151;DHT22;28755;51.478;5.702;2022-10-16T05:07:17;13.30;99.90
43151;DHT22;28755;51.478;5.702;2022-10-16T05:09:43;13.30;99.90
43151;DHT22;28755;51.478;5.702;2022-10-16T05:12:08;13.30;99.90
43151;DHT22;28755;51.478;5.702;2022-10-16T05:14:34;13.30;99.90
43151;DHT22;28755;51.478;5.702;2022-10-16T05:17:00;13.30;99.90
43151;DHT22;28755;51.478;5.702;2022-10-16T05:19:25;13.30;99.90
43151;DHT22;28755;51.478;5.702;2022-10-16T05:21:51;13.30;99.90
43151;DHT22;28755;51.478;5.702;2022-10-16T05:24:16;13.30;99.90
43151;DHT22;28755;51.478;5.702;2022-10-16T05:26:42;13.30;99.90
43151;DHT22;28755;51.478;5.702;2022-10-16T05:29:08;13.20;99.90
43151;DHT22;28755;51.478;5.702;2022-10-16T05:31:34;13.20;99.90
43151;DHT22;28755;51.478;5.702;2022-10-16T05:34:00;13.30;99.90
43151;DHT22;28755;51.478;5.702;2022-10-16T05:36:26;13.30;99.90
43151;DHT22;28755;51.478;5.702;2022-10-16T05:38:51;13.20;99.90
43151;DHT22;28755;51.478;5.702;2022-10-16T05:41:18;13.20;99.90
43151;DHT22;28755;51.478;5.702;2022-10-16T05:43:50;13.30;99.90
43151;DHT22;28755;51.478;5.702;2022-10-16T05:46:16;13.30;99.90
43151;DHT22;28755;51.478;5.702;2022-10-16T05:48:42;13.20;99.90
43151;DHT22;28755;51.478;5.702;2022-10-16T05:51:09;13.20;99.90
43151;DHT22;28755;51.478;5.702;2022-10-16T05:53:36;13.20;99.90
43151;DHT22;28755;51.478;5.702;2022-10-16T05:56:03;13.20;99.90
43151;DHT22;28755;51.478;5.702;2022-10-16T05:58:31;13.20;99.90
43151;DHT22;28755;51.478;5.702;2022-10-16T06:01:00;13.20;99.90
43151;DHT22;28755;51.478;5.702;2022-10-16T06:03:27;13.20;99.90
43151;DHT22;28755;51.478;5.702;2022-10-16T06:05:53;13.10;99.90
43151;DHT22;28755;51.478;5.702;2022-10-16T06:08:20;13.10;99.90
43151;DHT22;28755;51.478;5.702;2022-10-16T06:10:46;13.10;99.90
43151;DHT22;28755;51.478;5.702;2022-10-16T06:13:13;13.10;99.90
43151;DHT22;28755;51.478;5.702;2022-10-16T06:15:40;13.00;99.90
43151;DHT22;28755;51.478;5.702;2022-10-16T06:18:07;13.10;99.90
43151;DHT22;28755;51.478;5.702;2022-10-16T06:20:33;13.10;99.90
43151;DHT22;28755;51.478;5.702;2022-10-16T06:22:59;13.10;99.90
43151;DHT22;28755;51.478;5.702;2022-10-16T06:25:25;13.20;99.90
43151;DHT22;28755;51.478;5.702;2022-10-16T06:27:50;13.20;99.90
43151;DHT22;28755;51.478;5.702;2022-10-16T06:30:16;13.20;99.90
43151;DHT22;28755;51.478;5.702;2022-10-16T06:32:41;13.20;99.90
43151;DHT22;28755;51.478;5.702;2022-10-16T06:35:07;13.10;99.90
43151;DHT22;28755;51.478;5.702;2022-10-16T06:37:32;13.10;99.90
43151;DHT22;28755;51.478;5.702;2022-10-16T06:39:58;13.10;99.90
43151;DHT22;28755;51.478;5.702;2022-10-16T06:42:25;13.10;99.90
43151;DHT22;28755;51.478;5.702;2022-10-16T06:44:50;13.20;99.90
43151;DHT22;28755;51.478;5.702;2022-10-16T06:47:16;13.30;99.90
43151;DHT22;28755;51.478;5.702;2022-10-16T06:49:41;13.40;99.90
43151;DHT22;28755;51.478;5.702;2022-10-16T06:52:07;13.50;99.90
43151;DHT22;28755;51.478;5.702;2022-10-16T06:54:33;13.50;99.90
43151;DHT22;28755;51.478;5.702;2022-10-16T06:56:58;14.00;99.90
43151;DHT22;28755;51.478;5.702;2022-10-16T06:59:25;14.30;99.90
43151;DHT22;28755;51.478;5.702;2022-10-16T07:01:50;14.30;99.90
43151;DHT22;28755;51.478;5.702;2022-10-16T07:04:16;14.30;99.90
43151;DHT22;28755;51.478;5.702;2022-10-16T07:06:42;14.70;99.90
43151;DHT22;28755;51.478;5.702;2022-10-16T07:09:10;15.10;99.90
43151;DHT22;28755;51.478;5.702;2022-10-16T07:11:37;15.10;99.90
43151;DHT22;28755;51.478;5.702;2022-10-16T07:14:03;14.80;99.90
43151;DHT22;28755;51.478;5.702;2022-10-16T07:16:31;14.60;99.90
43151;DHT22;28755;51.478;5.702;2022-10-16T07:18:58;14.60;99.90
43151;DHT22;28755;51.478;5.702;2022-10-16T07:21:26;14.50;99.90
43151;DHT22;28755;51.478;5.702;2022-10-16T07:23:53;14.50;99.90
43151;DHT22;28755;51.478;5.702;2022-10-16T07:26:19;14.50;99.90
43151;DHT22;28755;51.478;5.702;2022-10-16T07:28:45;14.50;99.90
43151;DHT22;28755;51.478;5.702;2022-10-16T07:31:12;14.60;99.90
43151;DHT22;28755;51.478;5.702;2022-10-16T07:33:39;14.60;99.90
43151;DHT22;28755;51.478;5.702;2022-10-16T07:36:07;14.70;99.90
43151;DHT22;28755;51.478;5.702;2022-10-16T07:38:33;14.70;99.90
43151;DHT22;28755;51.478;5.702;2022-10-16T07:41:02;14.80;99.90
43151;DHT22;28755;51.478;5.702;2022-10-16T07:43:28;14.80;99.90
43151;DHT22;28755;51.478;5.702;2022-10-16T07:45:54;14.90;99.90
43151;DHT22;28755;51.478;5.702;2022-10-16T07:48:20;15.00;99.90
43151;DHT22;28755;51.478;5.702;2022-10-16T07:50:47;15.20;99.90
43151;DHT22;28755;51.478;5.702;2022-10-16T07:53:13;15.20;99.90
43151;DHT22;28755;51.478;5.702;2022-10-16T07:55:39;15.20;99.90
43151;DHT22;28755;51.478;5.702;2022-10-16T07:58:05;15.40;99.90
43151;DHT22;28755;51.478;5.702;2022-10-16T08:00:31;15.90;99.90
43151;DHT22;28755;51.478;5.702;2022-10-16T08:02:57;16.10;99.90
43151;DHT22;28755;51.478;5.702;2022-10-16T08:05:26;15.90;99.90
43151;DHT22;28755;51.478;5.702;2022-10-16T08:07:52;15.80;99.90
43151;DHT22;28755;51.478;5.702;2022-10-16T08:10:19;15.80;99.90
43151;DHT22;28755;51.478;5.702;2022-10-16T08:12:45;15.80;99.90
43151;DHT22;28755;51.478;5.702;2022-10-16T08:15:10;15.80;99.90
43151;DHT22;28755;51.478;5.702;2022-10-16T08:17:37;15.90;99.90
43151;DHT22;28755;51.478;5.702;2022-10-16T08:20:03;15.90;99.90
43151;DHT22;28755;51.478;5.702;2022-10-16T08:22:28;16.10;99.90
43151;DHT22;28755;51.478;5.702;2022-10-16T08:24:54;16.10;99.90
43151;DHT22;28755;51.478;5.702;2022-10-16T08:27:20;16.20;99.90
43151;DHT22;28755;51.478;5.702;2022-10-16T08:29:45;16.40;99.90
43151;DHT22;28755;51.478;5.702;2022-10-16T08:32:11;16.40;99.90
43151;DHT22;28755;51.478;5.702;2022-10-16T08:34:37;16.90;99.90
43151;DHT22;28755;51.478;5.702;2022-10-16T08:37:02;18.50;99.90
43151;DHT22;28755;51.478;5.702;2022-10-16T08:39:28;19.10;99.90
43151;DHT22;28755;51.478;5.702;2022-10-16T08:47:53;17.60;99.90
43151;DHT22;28755;51.478;5.702;2022-10-16T08:50:29;17.50;99.90
43151;DHT22;28755;51.478;5.702;2022-10-16T08:52:55;18.00;99.90
43151;DHT22;28755;51.478;5.702;2022-10-16T08:55:29;18.00;99.90
43151;DHT22;28755;51.478;5.702;2022-10-16T08:57:56;18.30;99.90
43151;DHT22;28755;51.478;5.702;2022-10-16T09:00:21;19.30;99.90
43151;DHT22;28755;51.478;5.702;2022-10-16T09:05:34;22.60;99.90
43151;DHT22;28755;51.478;5.702;2022-10-16T09:08:28;23.10;99.90
43151;DHT22;28755;51.478;5.702;2022-10-16T09:10:58;24.50;99.90
43151;DHT22;28755;51.478;5.702;2022-10-16T09:13:48;25.40;99.90
43151;DHT22;28755;51.478;5.702;2022-10-16T09:16:20;25.10;99.90
43151;DHT22;28755;51.478;5.702;2022-10-16T09:19:01;25.80;99.90
43151;DHT22;28755;51.478;5.702;2022-10-16T09:21:31;25.80;99.90
43151;DHT22;28755;51.478;5.702;2022-10-16T09:24:20;26.40;99.90
43151;DHT22;28755;51.478;5.702;2022-10-16T09:26:53;27.40;99.90
43151;DHT22;28755;51.478;5.702;2022-10-16T09:29:21;26.60;99.90
43151;DHT22;28755;51.478;5.702;2022-10-16T09:31:47;26.50;99.90
43151;DHT22;28755;51.478;5.702;2022-10-16T09:34:29;27.00;99.90
43151;DHT22;28755;51.478;5.702;2022-10-16T09:36:57;26.20;99.90
43151;DHT22;28755;51.478;5.702;2022-10-16T09:39:22;28.00;99.90
43151;DHT22;28755;51.478;5.702;2022-10-16T09:41:48;27.30;99.90
43151;DHT22;28755;51.478;5.702;2022-10-16T09:44:26;27.60;99.90
43151;DHT22;28755;51.478;5.702;2022-10-16T09:47:13;28.40;99.90
43151;DHT22;28755;51.478;5.702;2022-10-16T09:49:51;28.50;99.90
43151;DHT22;28755;51.478;5.702;2022-10-16T09:52:20;28.60;99.90
43151;DHT22;28755;51.478;5.702;2022-10-16T09:54:57;28.10;99.90
43151;DHT22;28755;51.478;5.702;2022-10-16T09:57:24;26.30;99.90
43151;DHT22;28755;51.478;5.702;2022-10-16T09:59:53;26.90;99.90
43151;DHT22;28755;51.478;5.702;2022-10-16T10:02:26;28.40;99.90
43151;DHT22;28755;51.478;5.702;2022-10-16T10:04:54;27.30;99.90
43151;DHT22;28755;51.478;5.702;2022-10-16T10:07:26;27.10;99.90
43151;DHT22;28755;51.478;5.702;2022-10-16T10:09:52;26.80;99.90
43151;DHT22;28755;51.478;5.702;2022-10-16T10:12:29;27.50;99.90
43151;DHT22;28755;51.478;5.702;2022-10-16T10:15:03;28.80;99.90
43151;DHT22;28755;51.478;5.702;2022-10-16T10:17:30;27.10;99.90
43151;DHT22;28755;51.478;5.702;2022-10-16T10:19:58;27.50;99.70
43151;DHT22;28755;51.478;5.702;2022-10-16T10:30:40;26.90;99.90
43151;DHT22;28755;51.478;5.702;2022-10-16T10:33:20;26.10;99.90
43151;DHT22;28755;51.478;5.702;2022-10-16T10:36:00;26.30;99.90
43151;DHT22;28755;51.478;5.702;2022-10-16T10:38:37;28.00;99.90
43151;DHT22;28755;51.478;5.702;2022-10-16T10:41:29;29.00;98.20
43151;DHT22;28755;51.478;5.702;2022-10-16T10:52:34;30.30;95.50
43151;DHT22;28755;51.478;5.702;2022-10-16T10:55:35;29.60;96.20
43151;DHT22;28755;51.478;5.702;2022-10-16T10:58:21;28.50;97.30
43151;DHT22;28755;51.478;5.702;2022-10-16T11:01:12;29.80;95.90
43151;DHT22;28755;51.478;5.702;2022-10-16T11:06:44;27.10;97.10
43151;DHT22;28755;51.478;5.702;2022-10-16T11:09:19;27.80;98.10
43151;DHT22;28755;51.478;5.702;2022-10-16T11:11:52;28.20;96.10
43151;DHT22;28755;51.478;5.702;2022-10-16T11:14:25;28.20;96.50
43151;DHT22;28755;51.478;5.702;2022-10-16T11:16:56;26.70;97.20
43151;DHT22;28755;51.478;5.702;2022-10-16T11:19:39;25.20;99.00
43151;DHT22;28755;51.478;5.702;2022-10-16T11:22:20;23.90;99.90
43151;DHT22;28755;51.478;5.702;2022-10-16T11:25:00;23.80;99.90
43151;DHT22;28755;51.478;5.702;2022-10-16T11:30:22;26.30;99.90
43151;DHT22;28755;51.478;5.702;2022-10-16T11:38:51;26.80;97.70
43151;DHT22;28755;51.478;5.702;2022-10-16T11:41:24;27.40;98.50
43151;DHT22;28755;51.478;5.702;2022-10-16T11:46:34;27.50;97.80
43151;DHT22;28755;51.478;5.702;2022-10-16T11:49:11;28.20;97.10
43151;DHT22;28755;51.478;5.702;2022-10-16T11:54:24;30.60;95.90
43151;DHT22;28755;51.478;5.702;2022-10-16T11:56:54;31.80;94.40
43151;DHT22;28755;51.478;5.702;2022-10-16T11:59:38;33.10;92.80
43151;DHT22;28755;51.478;5.702;2022-10-16T12:02:16;32.80;91.90
43151;DHT22;28755;51.478;5.702;2022-10-16T12:04:50;31.40;91.70
43151;DHT22;28755;51.478;5.702;2022-10-16T12:10:26;30.00;91.70
43151;DHT22;28755;51.478;5.702;2022-10-16T12:12:53;28.40;93.20
43151;DHT22;28755;51.478;5.702;2022-10-16T12:15:25;27.50;94.00
43151;DHT22;28755;51.478;5.702;2022-10-16T12:17:51;26.70;94.90
43151;DHT22;28755;51.478;5.702;2022-10-16T12:22:57;25.10;95.70
43151;DHT22;28755;51.478;5.702;2022-10-16T12:25:28;24.70;97.30
43151;DHT22;28755;51.478;5.702;2022-10-16T12:28:19;24.00;97.90
43151;DHT22;28755;51.478;5.702;2022-10-16T12:30:58;23.40;99.60
43151;DHT22;28755;51.478;5.702;2022-10-16T12:33:36;23.30;99.90
43151;DHT22;28755;51.478;5.702;2022-10-16T12:36:14;23.30;99.90
43151;DHT22;28755;51.478;5.702;2022-10-16T12:38:53;23.00;99.90
43151;DHT22;28755;51.478;5.702;2022-10-16T12:41:36;23.30;99.90
43151;DHT22;28755;51.478;5.702;2022-10-16T12:44:20;23.70;99.90
43151;DHT22;28755;51.478;5.702;2022-10-16T12:46:46;24.50;99.90
43151;DHT22;28755;51.478;5.702;2022-10-16T12:51:37;24.20;99.90
43151;DHT22;28755;51.478;5.702;2022-10-16T12:54:04;24.70;99.90
43151;DHT22;28755;51.478;5.702;2022-10-16T12:59:54;24.30;99.90
43151;DHT22;28755;51.478;5.702;2022-10-16T13:03:00;23.10;99.90
43151;DHT22;28755;51.478;5.702;2022-10-16T13:05:59;22.80;99.90
43151;DHT22;28755;51.478;5.702;2022-10-16T13:08:48;22.80;99.90
43151;DHT22;28755;51.478;5.702;2022-10-16T13:11:51;22.60;99.90
43151;DHT22;28755;51.478;5.702;2022-10-16T13:14:29;22.50;99.90
43151;DHT22;28755;51.478;5.702;2022-10-16T13:17:01;22.50;99.90
43151;DHT22;28755;51.478;5.702;2022-10-16T13:22:48;23.40;99.90
43151;DHT22;28755;51.478;5.702;2022-10-16T13:25:42;23.20;99.90
43151;DHT22;28755;51.478;5.702;2022-10-16T13:28:11;23.10;99.90
43151;DHT22;28755;51.478;5.702;2022-10-16T13:30:43;22.80;99.90
43151;DHT22;28755;51.478;5.702;2022-10-16T13:33:32;22.80;99.90
43151;DHT22;28755;51.478;5.702;2022-10-16T13:35:58;22.70;99.90
43151;DHT22;28755;51.478;5.702;2022-10-16T13:38:26;22.40;99.90
43151;DHT22;28755;51.478;5.702;2022-10-16T13:41:01;22.20;99.90
43151;DHT22;28755;51.478;5.702;2022-10-16T13:43:29;22.30;99.90
43151;DHT22;28755;51.478;5.702;2022-10-16T13:46:11;21.90;99.90
43151;DHT22;28755;51.478;5.702;2022-10-16T13:48:37;21.40;99.90
43151;DHT22;28755;51.478;5.702;2022-10-16T13:51:21;21.20;99.90
43151;DHT22;28755;51.478;5.702;2022-10-16T13:53:46;21.20;99.90
43151;DHT22;28755;51.478;5.702;2022-10-16T13:56:14;21.10;99.90
43151;DHT22;28755;51.478;5.702;2022-10-16T13:58:41;20.80;99.90
43151;DHT22;28755;51.478;5.702;2022-10-16T14:01:19;20.70;99.90
43151;DHT22;28755;51.478;5.702;2022-10-16T14:03:46;20.60;99.90
43151;DHT22;28755;51.478;5.702;2022-10-16T14:06:15;20.60;99.90
43151;DHT22;28755;51.478;5.702;2022-10-16T14:09:07;20.60;99.90
43151;DHT22;28755;51.478;5.702;2022-10-16T14:11:34;20.50;99.90
43151;DHT22;28755;51.478;5.702;2022-10-16T14:14:03;20.50;99.90
43151;DHT22;28755;51.478;5.702;2022-10-16T14:16:30;20.40;99.90
43151;DHT22;28755;51.478;5.702;2022-10-16T14:18:57;20.30;99.90
43151;DHT22;28755;51.478;5.702;2022-10-16T14:21:24;20.10;99.90
43151;DHT22;28755;51.478;5.702;2022-10-16T14:23:50;20.00;99.90
43151;DHT22;28755;51.478;5.702;2022-10-16T14:26:19;19.90;99.90
43151;DHT22;28755;51.478;5.702;2022-10-16T14:28:46;19.90;99.90
43151;DHT22;28755;51.478;5.702;2022-10-16T14:31:32;20.10;99.90
43151;DHT22;28755;51.478;5.702;2022-10-16T14:33:59;20.20;99.90
43151;DHT22;28755;51.478;5.702;2022-10-16T14:36:26;20.30;99.90
43151;DHT22;28755;51.478;5.702;2022-10-16T14:41:21;20.40;99.90
43151;DHT22;28755;51.478;5.702;2022-10-16T14:43:51;20.30;99.90
43151;DHT22;28755;51.478;5.702;2022-10-16T14:46:22;20.30;99.90
43151;DHT22;28755;51.478;5.702;2022-10-16T14:49:02;20.30;99.90
43151;DHT22;28755;51.478;5.702;2022-10-16T14:51:31;20.40;99.90
43151;DHT22;28755;51.478;5.702;2022-10-16T14:53:56;20.50;99.90
43151;DHT22;28755;51.478;5.702;2022-10-16T14:56:29;20.50;99.90
43151;DHT22;28755;51.478;5.702;2022-10-16T14:58:56;20.50;99.90
43151;DHT22;28755;51.478;5.702;2022-10-16T15:01:22;20.40;99.90
43151;DHT22;28755;51.478;5.702;2022-10-16T15:03:51;20.40;99.90
43151;DHT22;28755;51.478;5.702;2022-10-16T15:06:19;20.30;99.90
43151;DHT22;28755;51.478;5.702;2022-10-16T15:08:45;20.00;99.90
43151;DHT22;28755;51.478;5.702;2022-10-16T15:11:16;19.80;99.90
43151;DHT22;28755;51.478;5.702;2022-10-16T15:13:42;19.80;99.90
43151;DHT22;28755;51.478;5.702;2022-10-16T15:16:11;19.90;99.90
43151;DHT22;28755;51.478;5.702;2022-10-16T15:18:37;20.00;99.90
43151;DHT22;28755;51.478;5.702;2022-10-16T15:21:03;20.00;99.90
43151;DHT22;28755;51.478;5.702;2022-10-16T15:23:29;20.00;99.90
43151;DHT22;28755;51.478;5.702;2022-10-16T15:25:55;19.90;99.90
43151;DHT22;28755;51.478;5.702;2022-10-16T15:28:23;19.70;99.90
43151;DHT22;28755;51.478;5.702;2022-10-16T15:30:50;19.80;99.90
43151;DHT22;28755;51.478;5.702;2022-10-16T15:33:22;19.60;99.90
43151;DHT22;28755;51.478;5.702;2022-10-16T15:35:50;19.50;99.90
43151;DHT22;28755;51.478;5.702;2022-10-16T15:38:17;19.60;99.90
43151;DHT22;28755;51.478;5.702;2022-10-16T15:40:44;19.50;99.90
43151;DHT22;28755;51.478;5.702;2022-10-16T15:43:09;19.30;99.90
43151;DHT22;28755;51.478;5.702;2022-10-16T15:45:35;19.30;99.90
43151;DHT22;28755;51.478;5.702;2022-10-16T15:48:01;19.30;99.90
43151;DHT22;28755;51.478;5.702;2022-10-16T15:50:27;19.40;99.90
43151;DHT22;28755;51.478;5.702;2022-10-16T15:52:52;19.50;99.90
43151;DHT22;28755;51.478;5.702;2022-10-16T15:55:18;19.40;99.90
43151;DHT22;28755;51.478;5.702;2022-10-16T15:57:44;19.40;99.90
43151;DHT22;28755;51.478;5.702;2022-10-16T16:00:15;19.40;99.90
43151;DHT22;28755;51.478;5.702;2022-10-16T16:02:43;19.40;99.90
43151;DHT22;28755;51.478;5.702;2022-10-16T16:05:10;19.40;99.90
43151;DHT22;28755;51.478;5.702;2022-10-16T16:07:36;19.30;99.90
43151;DHT22;28755;51.478;5.702;2022-10-16T16:10:04;19.30;99.90
43151;DHT22;28755;51.478;5.702;2022-10-16T16:12:30;19.30;99.90
43151;DHT22;28755;51.478;5.702;2022-10-16T16:14:56;19.30;99.90
43151;DHT22;28755;51.478;5.702;2022-10-16T16:17:21;19.30;99.90
43151;DHT22;28755;51.478;5.702;2022-10-16T16:19:47;19.20;99.90
43151;DHT22;28755;51.478;5.702;2022-10-16T16:22:13;19.10;99.90
43151;DHT22;28755;51.478;5.702;2022-10-16T16:24:38;19.00;99.90
43151;DHT22;28755;51.478;5.702;2022-10-16T16:27:04;18.90;99.90
43151;DHT22;28755;51.478;5.702;2022-10-16T16:29:30;18.80;99.90
43151;DHT22;28755;51.478;5.702;2022-10-16T16:31:55;18.80;99.90
43151;DHT22;28755;51.478;5.702;2022-10-16T16:34:28;18.80;99.90
43151;DHT22;28755;51.478;5.702;2022-10-16T16:36:57;18.70;99.90
43151;DHT22;28755;51.478;5.702;2022-10-16T16:39:22;18.60;99.90
43151;DHT22;28755;51.478;5.702;2022-10-16T16:41:48;18.50;99.90
43151;DHT22;28755;51.478;5.702;2022-10-16T16:44:16;18.50;99.90
43151;DHT22;28755;51.478;5.702;2022-10-16T16:46:42;18.40;99.90
43151;DHT22;28755;51.478;5.702;2022-10-16T16:49:12;18.30;99.90
43151;DHT22;28755;51.478;5.702;2022-10-16T16:51:39;18.30;99.90
43151;DHT22;28755;51.478;5.702;2022-10-16T16:54:05;18.30;99.90
43151;DHT22;28755;51.478;5.702;2022-10-16T16:56:32;18.20;99.90